Time;durP1;ratioP1;P1;durP2;ratioP2;P2;SDS_P1;SDS_P2;PMS_P1;PMS_P2;Temp;Humidity;BMP_temperature;BMP_pressure;BME280_temperature;BME280_humidity;BME280_pressure;Samples;Min_cycle;Max_cycle;Signal;HPM_P1;HPM_P2
2021/10/14 00:00:46;;;;;;;16.00;11.30;;;;;;;4.32;77.64;97636.25;116073;1181;60342;-66
2021/10/14 00:03:17;;;;;;;12.30;9.30;;;;;;;4.31;77.39;97636.67;115982;1184;60355;-67
2021/10/14 00:05:47;;;;;;;14.20;9.80;;;;;;;4.30;76.80;97633.92;116024;1183;71485;-66
2021/10/14 00:08:17;;;;;;;;;;;;;;;4.29;76.90;97633.45;116083;1183;68376;-65
2021/10/14 00:10:47;;;;;;;12.00;9.10;;;;;;;4.28;77.63;97636.45;115994;1183;69247;-64
2021/10/14 00:13:17;;;;;;;20.00;13.60;;;;;;;4.25;79.60;97633.09;116088;1182;60386;-65
2021/10/14 00:15:47;;;;;;;12.70;8.70;;;;;;;4.23;79.13;97636.30;116069;1183;60363;-67
2021/10/14 00:18:19;;;;;;;18.60;13.70;;;;;;;4.22;77.33;97636.69;115932;1184;71441;-65
2021/10/14 00:20:49;;;;;;;13.60;9.90;;;;;;;4.20;77.83;97638.34;116004;1184;68397;-65
2021/10/14 00:23:24;;;;;;;17.60;12.90;;;;;;;4.19;77.29;97641.46;115989;1183;68470;-67
2021/10/14 00:25:55;;;;;;;13.50;9.60;;;;;;;4.18;78.00;97641.34;115981;1183;60370;-66
2021/10/14 00:28:25;;;;;;;14.30;10.90;;;;;;;4.17;77.72;97641.41;115996;1182;60431;-66
2021/10/14 00:30:55;;;;;;;22.40;14.40;;;;;;;4.16;78.07;97643.68;116054;1184;72173;-65
2021/10/14 00:33:24;;;;;;;19.20;12.80;;;;;;;4.14;79.95;97643.75;116053;1184;67452;-68
2021/10/14 00:35:56;;;;;;;22.60;16.20;;;;;;;4.13;79.86;97642.97;115908;1176;69187;-66
2021/10/14 00:38:26;;;;;;;19.30;13.70;;;;;;;4.09;81.77;97647.62;116028;1184;60360;-66
2021/10/14 00:40:56;;;;;;;;;;;;;;;4.06;79.61;97644.60;116052;1183;60331;-65
2021/10/14 00:43:27;;;;;;;25.50;17.70;;;;;;;4.05;78.42;97646.23;116365;1176;72411;-66
2021/10/14 00:45:57;;;;;;;38.60;23.60;;;;;;;4.02;79.11;97650.52;115929;1183;68460;-65
2021/10/14 00:48:27;;;;;;;21.90;15.40;;;;;;;3.97;78.91;97656.05;115986;1184;68289;-64
2021/10/14 00:50:58;;;;;;;19.40;14.80;;;;;;;3.93;79.00;97660.70;116018;1183;60797;-66
2021/10/14 00:53:29;;;;;;;22.70;14.90;;;;;;;3.89;78.10;97659.52;116193;1174;60371;-66
2021/10/14 00:55:59;;;;;;;;;;;;;;;3.82;80.66;97657.55;116088;1183;71384;-67
2021/10/14 00:58:30;;;;;;;17.20;12.00;;;;;;;3.73;82.31;97664.30;116284;1182;68427;-66
2021/10/14 01:01:02;;;;;;;17.70;14.70;;;;;;;3.68;80.43;97665.54;116189;1182;69276;-66
2021/10/14 01:03:33;;;;;;;19.80;14.10;;;;;;;3.64;80.23;97669.48;115962;1184;60335;-68
2021/10/14 01:06:03;;;;;;;16.30;11.10;;;;;;;3.61;80.11;97672.74;116009;1184;60386;-67
2021/10/14 01:08:35;;;;;;;19.60;13.20;;;;;;;3.58;79.65;97673.88;116030;1183;71419;-65
2021/10/14 01:11:09;;;;;;;21.70;15.70;;;;;;;3.56;79.43;97679.61;116076;1183;67469;-66
2021/10/14 01:13:39;;;;;;;18.10;12.20;;;;;;;3.54;79.71;97674.52;115903;1184;68654;-66
2021/10/14 01:16:09;;;;;;;17.20;13.00;;;;;;;3.53;80.07;97675.96;115983;1184;60367;-68
2021/10/14 01:18:39;;;;;;;17.30;11.10;;;;;;;3.51;79.68;97676.23;115896;1183;60356;-64
2021/10/14 01:21:10;;;;;;;;;;;;;;;3.49;79.58;97679.23;116008;1182;72156;-66
2021/10/14 01:23:40;;;;;;;19.20;12.20;;;;;;;3.48;78.73;97681.15;115915;1183;67663;-68
2021/10/14 01:26:10;;;;;;;19.40;14.30;;;;;;;3.46;79.71;97683.11;116033;1182;68465;-67
2021/10/14 01:28:40;;;;;;;31.20;21.40;;;;;;;3.44;78.99;97684.08;116058;1182;60357;-68
2021/10/14 01:31:10;;;;;;;20.10;14.80;;;;;;;3.39;80.82;97683.77;115961;1182;60363;-65
2021/10/14 01:33:40;;;;;;;17.10;13.40;;;;;;;3.35;79.89;97682.21;115985;1174;72098;-66
2021/10/14 01:36:11;;;;;;;32.30;22.90;;;;;;;3.31;81.03;97682.02;116096;1182;68318;-65
2021/10/14 01:38:42;;;;;;;27.30;20.40;;;;;;;3.24;82.59;97679.04;116141;1182;67434;-66
2021/10/14 01:41:13;;;;;;;16.30;9.90;;;;;;;3.19;81.78;97681.79;116005;1182;60397;-65
2021/10/14 01:43:43;;;;;;;21.30;14.40;;;;;;;3.16;79.91;97681.05;116062;1182;60329;-68
2021/10/14 01:46:14;;;;;;;21.50;14.60;;;;;;;3.14;80.21;97683.55;116076;1183;71286;-66
2021/10/14 01:48:44;;;;;;;22.60;15.60;;;;;;;3.11;80.95;97681.44;115773;1183;67516;-64
2021/10/14 01:51:15;;;;;;;32.90;23.30;;;;;;;3.03;82.42;97684.81;115863;1184;69369;-65
2021/10/14 01:53:47;;;;;;;17.70;12.60;;;;;;;2.99;82.92;97693.27;116033;1182;60357;-67
2021/10/14 01:56:17;;;;;;;20.00;12.80;;;;;;;2.95;81.95;97692.19;115948;1184;60335;-67
2021/10/14 01:58:48;;;;;;;22.10;14.00;;;;;;;2.92;82.46;97692.98;116062;1182;71824;-67
2021/10/14 02:01:18;;;;;;;22.50;14.40;;;;;;;2.92;81.62;97696.79;116030;1182;68327;-67
2021/10/14 02:03:48;;;;;;;20.20;13.70;;;;;;;2.92;80.82;97698.00;116047;1182;69249;-66
2021/10/14 02:06:18;;;;;;;19.10;12.60;;;;;;;2.90;80.83;97701.66;116070;1182;60404;-66
2021/10/14 02:08:48;;;;;;;22.10;14.80;;;;;;;2.89;80.95;97701.05;116139;1180;60364;-64
2021/10/14 02:11:18;;;;;;;24.70;14.90;;;;;;;2.87;81.07;97701.47;115989;1182;72202;-65
2021/10/14 02:13:48;;;;;;;;;;;;;;;2.86;80.80;97706.28;115867;1182;67752;-64
2021/10/14 02:16:20;;;;;;;21.70;13.40;;;;;;;2.85;80.67;97707.73;115848;1178;68299;-62
2021/10/14 02:18:51;;;;;;;20.50;13.10;;;;;;;2.82;80.91;97707.65;116069;1182;60341;-66
2021/10/14 02:21:24;;;;;;;30.70;19.10;;;;;;;2.77;81.50;97704.05;116033;1184;60366;-66
2021/10/14 02:23:54;;;;;;;22.90;13.60;;;;;;;2.72;83.72;97709.59;115972;1182;72179;-63
2021/10/14 02:26:23;;;;;;;;;;;;;;;2.68;83.34;97712.31;116026;1182;68280;-67
2021/10/14 02:28:55;;;;;;;31.90;17.80;;;;;;;2.64;82.96;97714.01;115942;1184;68519;-67
2021/10/14 02:31:24;;;;;;;34.50;18.20;;;;;;;2.60;84.27;97718.45;115968;1184;60350;-66
2021/10/14 02:33:54;;;;;;;30.30;16.40;;;;;;;2.56;84.34;97713.77;115982;1178;60344;-66
2021/10/14 02:36:24;;;;;;;23.40;15.40;;;;;;;2.52;84.79;97714.58;115917;1184;72208;-68
2021/10/14 02:38:54;;;;;;;17.40;12.20;;;;;;;2.48;84.11;97718.50;115965;1184;68417;-65
2021/10/14 02:41:25;;;;;;;42.50;20.70;;;;;;;2.47;83.85;97720.26;115912;1183;69276;-66
2021/10/14 02:43:54;;;;;;;49.30;21.50;;;;;;;2.45;84.80;97722.94;115987;1184;60362;-66
2021/10/14 02:46:24;;;;;;;31.10;19.80;;;;;;;2.42;85.35;97722.02;115948;1184;60412;-65
2021/10/14 02:48:54;;;;;;;59.20;24.90;;;;;;;2.39;86.11;97726.41;115872;1184;72226;-67
2021/10/14 02:51:24;;;;;;;51.50;24.30;;;;;;;2.33;87.76;97723.02;116006;1184;68450;-66
2021/10/14 02:53:55;;;;;;;46.90;21.40;;;;;;;2.28;88.02;97726.27;115922;1184;67715;-65
2021/10/14 02:56:25;;;;;;;19.40;12.60;;;;;;;2.24;87.30;97725.89;115948;1183;60363;-67
2021/10/14 02:58:54;;;;;;;13.00;10.20;;;;;;;2.22;86.29;97731.98;115955;1184;61131;-63
2021/10/14 03:01:24;;;;;;;21.50;13.10;;;;;;;2.20;85.70;97735.83;115889;1184;72898;-63
2021/10/14 03:03:54;;;;;;;29.00;17.90;;;;;;;2.17;85.35;97735.09;115933;1184;68315;-65
2021/10/14 03:06:24;;;;;;;9.40;5.60;;;;;;;2.14;85.23;97733.63;115886;1183;68599;-63
2021/10/14 03:08:54;;;;;;;8.80;6.00;;;;;;;2.11;84.72;97738.57;115978;1183;60334;-66
2021/10/14 03:11:24;;;;;;;18.00;12.90;;;;;;;2.05;84.69;97737.71;115942;1183;60390;-66
2021/10/14 03:13:54;;;;;;;18.30;13.40;;;;;;;2.00;84.87;97738.73;115920;1182;71441;-67
2021/10/14 03:16:24;;;;;;;20.70;13.40;;;;;;;1.94;85.02;97744.09;115949;1184;68162;-64
2021/10/14 03:18:55;;;;;;;9.70;7.50;;;;;;;1.91;84.58;97745.07;115995;1182;69198;-66
2021/10/14 03:21:24;;;;;;;12.50;7.70;;;;;;;1.89;83.69;97746.68;116020;1184;60351;-63
2021/10/14 03:23:54;;;;;;;13.30;10.00;;;;;;;1.87;83.60;97753.28;116032;1182;60363;-66
2021/10/14 03:26:24;;;;;;;;;;;;;;;1.86;82.71;97757.11;116041;1182;71782;-66
2021/10/14 03:28:56;;;;;;;16.50;11.40;;;;;;;1.80;83.78;97756.27;116106;1182;67902;-63
2021/10/14 03:31:26;;;;;;;13.80;10.80;;;;;;;1.74;84.43;97764.17;115909;1184;68476;-63
2021/10/14 03:33:56;;;;;;;;;;;;;;;1.68;84.22;97764.20;116043;1184;60346;-65
2021/10/14 03:36:27;;;;;;;23.30;14.80;;;;;;;1.59;85.11;97769.29;115986;1182;60360;-67
2021/10/14 03:39:00;;;;;;;19.70;12.40;;;;;;;1.50;85.34;97771.45;116037;1182;71401;-66
2021/10/14 03:41:30;;;;;;;24.20;16.40;;;;;;;1.44;84.67;97776.61;115933;1184;67667;-66
2021/10/14 03:44:00;;;;;;;20.70;14.70;;;;;;;1.38;85.79;97777.67;115814;1184;68469;-67
2021/10/14 03:46:30;;;;;;;27.10;17.00;;;;;;;1.34;85.65;97784.13;116069;1184;60334;-67
2021/10/14 03:48:59;;;;;;;20.60;13.60;;;;;;;1.31;86.33;97785.42;116031;1182;60319;-67
2021/10/14 03:51:30;;;;;;;16.00;10.60;;;;;;;1.27;86.05;97782.95;116003;1183;72194;-66
2021/10/14 03:53:59;;;;;;;24.70;17.70;;;;;;;1.25;85.57;97783.89;116066;1182;67633;-68
2021/10/14 03:56:29;;;;;;;21.70;14.60;;;;;;;1.22;86.00;97788.11;116110;1182;68580;-66
2021/10/14 03:58:58;;;;;;;35.90;20.10;;;;;;;1.18;86.07;97789.05;116086;1182;60329;-66
2021/10/14 04:01:28;;;;;;;40.90;19.30;;;;;;;1.14;86.93;97792.27;116120;1182;60375;-64
2021/10/14 04:03:58;;;;;;;17.10;11.10;;;;;;;1.11;87.20;97792.54;116078;1182;72092;-62
2021/10/14 04:06:28;;;;;;;19.90;13.50;;;;;;;1.09;86.76;97792.58;115933;1184;68404;-65
2021/10/14 04:08:58;;;;;;;16.90;11.00;;;;;;;1.07;86.88;97791.97;115955;1183;69085;-68
2021/10/14 04:11:27;;;;;;;23.10;16.70;;;;;;;1.04;86.33;97794.10;116068;1182;60357;-66
2021/10/14 04:13:57;;;;;;;25.10;15.30;;;;;;;1.00;86.00;97794.89;116096;1182;60319;-66
2021/10/14 04:16:27;;;;;;;28.70;17.10;;;;;;;0.97;85.63;97803.40;116002;1182;70540;-66
2021/10/14 04:18:57;;;;;;;23.10;13.30;;;;;;;0.93;85.94;97806.94;115970;1182;67685;-64
2021/10/14 04:21:26;;;;;;;16.90;11.50;;;;;;;0.91;86.35;97807.86;116002;1182;69248;-64
2021/10/14 04:23:58;;;;;;;25.50;15.30;;;;;;;0.89;86.03;97812.39;115938;1184;60435;-65
2021/10/14 04:26:27;;;;;;;14.50;8.20;;;;;;;0.87;85.48;97818.26;115956;1184;60348;-67
2021/10/14 04:28:57;;;;;;;20.80;11.70;;;;;;;0.87;85.22;97821.02;115909;1183;72318;-66
2021/10/14 04:31:27;;;;;;;31.20;15.60;;;;;;;0.86;85.37;97822.42;115947;1184;66659;-66
2021/10/14 04:33:57;;;;;;;21.10;13.60;;;;;;;0.84;85.75;97825.74;115934;1183;68536;-65
2021/10/14 04:36:26;;;;;;;16.60;11.20;;;;;;;0.82;85.67;97828.52;116062;1184;60368;-68
2021/10/14 04:38:56;;;;;;;12.50;8.60;;;;;;;0.80;85.18;97831.86;115921;1176;60334;-67
2021/10/14 04:41:25;;;;;;;23.50;15.20;;;;;;;0.76;86.03;97830.77;115949;1183;72329;-66
2021/10/14 04:43:54;;;;;;;36.90;20.20;;;;;;;0.72;86.68;97832.23;115981;1184;69963;-64
2021/10/14 04:46:24;;;;;;;30.20;17.90;;;;;;;0.70;87.76;97836.76;115982;1184;69296;-64
2021/10/14 04:48:54;;;;;;;87.80;43.60;;;;;;;0.68;88.58;97836.27;116103;1182;60354;-64
2021/10/14 04:51:23;;;;;;;27.20;15.70;;;;;;;0.70;88.50;97837.95;116148;1183;60363;-64
2021/10/14 04:53:53;;;;;;;27.20;15.40;;;;;;;0.73;87.15;97841.29;115947;1184;71281;-67
2021/10/14 04:56:22;;;;;;;36.10;19.60;;;;;;;0.74;85.78;97843.52;115957;1183;67943;-65
2021/10/14 04:58:52;;;;;;;27.40;14.30;;;;;;;0.71;85.16;97848.55;115972;1184;69397;-66
2021/10/14 05:01:22;;;;;;;21.30;13.90;;;;;;;0.69;85.46;97852.73;116116;1183;60369;-69
2021/10/14 05:03:51;;;;;;;26.10;18.10;;;;;;;0.68;85.23;97855.67;116091;1183;60369;-66
2021/10/14 05:06:21;;;;;;;20.60;13.60;;;;;;;0.67;85.31;97855.17;116002;1183;72581;-66
2021/10/14 05:08:51;;;;;;;11.50;7.90;;;;;;;0.68;84.70;97855.33;116101;1183;68233;-66
2021/10/14 05:11:20;;;;;;;21.80;14.00;;;;;;;0.69;84.20;97861.30;115812;1176;69962;-64
2021/10/14 05:13:52;;;;;;;17.90;11.20;;;;;;;0.70;84.10;97867.30;116030;1183;60349;-65
2021/10/14 05:16:21;;;;;;;19.70;12.10;;;;;;;0.71;84.06;97869.50;115997;1184;60358;-65
2021/10/14 05:18:51;;;;;;;54.00;28.30;;;;;;;0.71;84.83;97870.84;115926;1184;72252;-65
2021/10/14 05:21:20;;;;;;;36.60;22.60;;;;;;;0.73;85.67;97871.15;116019;1184;67488;-65
2021/10/14 05:23:49;;;;;;;66.80;33.00;;;;;;;0.73;85.83;97873.20;116059;1183;69229;-66
2021/10/14 05:26:18;;;;;;;49.50;26.10;;;;;;;0.75;86.76;97873.52;116136;1183;60363;-70
2021/10/14 05:28:47;;;;;;;48.90;22.10;;;;;;;0.79;87.00;97875.29;116064;1185;60336;-67
2021/10/14 05:31:16;;;;;;;20.10;13.80;;;;;;;0.82;86.84;97878.98;116180;1182;71592;-66
2021/10/14 05:33:46;;;;;;;22.00;14.30;;;;;;;0.84;86.28;97886.47;116218;1182;68391;-67
2021/10/14 05:36:16;;;;;;;22.70;13.30;;;;;;;0.88;86.01;97888.77;115988;1184;68551;-67
2021/10/14 05:38:45;;;;;;;20.80;13.10;;;;;;;0.91;85.17;97892.28;116115;1183;60412;-66
2021/10/14 05:41:14;;;;;;;31.40;19.20;;;;;;;0.93;84.29;97896.86;115966;1184;60575;-68
2021/10/14 05:43:43;;;;;;;23.30;15.00;;;;;;;0.94;84.46;97900.45;116153;1184;72285;-64
2021/10/14 05:46:13;;;;;;;32.00;20.00;;;;;;;0.98;84.57;97902.23;116101;1183;67489;-63
2021/10/14 05:48:42;;;;;;;26.30;17.60;;;;;;;1.06;85.27;97906.99;116151;1184;69191;-69
2021/10/14 05:51:11;;;;;;;16.90;11.40;;;;;;;1.15;85.35;97905.39;116065;1183;60322;-68
2021/10/14 05:53:41;;;;;;;19.70;14.40;;;;;;;1.27;85.06;97904.36;116148;1184;60319;-63
2021/10/14 05:56:10;;;;;;;16.30;11.70;;;;;;;1.41;84.56;97903.13;116054;1183;72343;-64
2021/10/14 05:58:39;;;;;;;40.30;24.10;;;;;;;1.52;84.03;97908.66;116124;1184;67707;-66
2021/10/14 06:01:09;;;;;;;30.30;17.80;;;;;;;1.57;84.55;97909.36;116056;1184;69557;-65
2021/10/14 06:03:38;;;;;;;36.70;23.20;;;;;;;1.64;84.08;97911.20;116143;1183;60368;-64
2021/10/14 06:06:07;;;;;;;37.70;25.40;;;;;;;1.73;84.95;97914.90;116104;1184;60427;-67
2021/10/14 06:08:37;;;;;;;31.90;19.90;;;;;;;1.84;84.70;97913.73;116044;1184;72165;-66
2021/10/14 06:11:06;;;;;;;29.00;18.60;;;;;;;2.02;84.43;97915.91;116085;1183;68423;-66
2021/10/14 06:13:36;;;;;;;24.60;15.90;;;;;;;2.42;83.94;97915.01;116094;1182;68444;-65
2021/10/14 06:16:06;;;;;;;41.60;29.10;;;;;;;3.03;83.55;97919.54;116144;1183;60355;-64
2021/10/14 06:18:37;;;;;;;23.80;16.20;;;;;;;3.72;82.00;97921.89;116106;1183;60424;-68
2021/10/14 06:21:07;;;;;;;20.10;12.70;;;;;;;4.26;80.72;97925.52;116000;1183;72312;-67
2021/10/14 06:23:36;;;;;;;20.40;14.00;;;;;;;4.87;79.80;97929.27;116238;1182;68390;-63
2021/10/14 06:26:05;;;;;;;23.60;16.00;;;;;;;5.62;79.75;97926.55;115945;1184;68565;-66
2021/10/14 06:28:34;;;;;;;24.60;17.40;;;;;;;6.45;76.11;97932.40;116103;1184;60366;-66
2021/10/14 06:31:04;;;;;;;30.30;21.00;;;;;;;7.21;72.95;97933.70;116078;1182;60352;-63
2021/10/14 06:33:33;;;;;;;34.60;24.40;;;;;;;7.72;68.10;97932.98;116183;1182;72195;-68
2021/10/14 06:36:03;;;;;;;26.60;18.10;;;;;;;8.07;66.26;97931.41;116040;1184;68240;-68
2021/10/14 06:38:32;;;;;;;22.70;17.20;;;;;;;8.36;64.79;97937.83;116065;1185;68484;-69
2021/10/14 06:41:02;;;;;;;36.30;24.90;;;;;;;8.78;67.71;97943.30;116032;1183;60357;-69
2021/10/14 06:43:31;;;;;;;29.70;22.40;;;;;;;9.22;66.32;97944.56;116106;1183;60346;-67
2021/10/14 06:46:00;;;;;;;30.00;24.10;;;;;;;9.75;62.95;97941.41;116039;1184;72595;-64
2021/10/14 06:48:30;;;;;;;24.70;18.40;;;;;;;10.28;62.16;97945.96;116127;1184;67504;-67
2021/10/14 06:50:59;;;;;;;42.40;30.50;;;;;;;10.70;62.34;97948.69;116102;1184;69621;-67
2021/10/14 06:53:29;;;;;;;42.60;33.50;;;;;;;10.97;59.40;97949.71;116102;1184;60370;-68
2021/10/14 06:55:59;;;;;;;45.30;34.60;;;;;;;11.09;59.98;97953.45;116145;1184;60307;-66
2021/10/14 06:58:28;;;;;;;;;;;;;;;10.59;56.75;97954.09;116154;1184;71887;-67
2021/10/14 07:00:57;;;;;;;29.50;25.10;;;;;;;10.54;58.46;97954.64;116189;1182;68763;-67
2021/10/14 07:03:26;;;;;;;30.40;22.20;;;;;;;10.92;57.17;97956.34;116179;1183;69578;-68
2021/10/14 07:05:55;;;;;;;34.60;26.40;;;;;;;11.52;58.65;97959.27;116142;1182;60389;-67
2021/10/14 07:08:24;;;;;;;36.80;29.20;;;;;;;12.13;57.47;97960.91;116152;1182;60382;-69
2021/10/14 07:10:54;;;;;;;29.30;25.40;;;;;;;12.15;53.29;97957.38;115998;1183;72254;-67
2021/10/14 07:13:23;;;;;;;32.80;26.00;;;;;;;12.42;56.43;97964.78;116108;1178;68361;-66
2021/10/14 07:15:53;;;;;;;27.30;21.20;;;;;;;12.47;54.24;97966.85;115991;1185;69294;-66
2021/10/14 07:18:22;;;;;;;19.60;16.30;;;;;;;12.45;54.12;97967.69;115960;1184;60351;-68
2021/10/14 07:20:51;;;;;;;23.50;18.20;;;;;;;12.61;55.23;97967.59;115995;1184;60390;-65
2021/10/14 07:23:21;;;;;;;26.90;22.70;;;;;;;12.67;54.41;97972.75;116071;1184;72227;-68
2021/10/14 07:25:50;;;;;;;21.50;18.30;;;;;;;12.45;53.88;97969.48;116038;1183;68056;-66
2021/10/14 07:28:20;;;;;;;18.80;15.50;;;;;;;12.66;55.49;97974.05;115908;1185;68457;-69
2021/10/14 07:30:52;;;;;;;18.80;16.00;;;;;;;13.05;54.19;97973.84;116031;1183;60325;-68
2021/10/14 07:33:22;;;;;;;13.70;10.70;;;;;;;13.53;54.99;97972.88;116076;1184;60388;-68
2021/10/14 07:35:51;;;;;;;14.00;11.00;;;;;;;13.96;53.10;97968.17;115964;1184;72226;-69
2021/10/14 07:38:20;;;;;;;10.40;8.30;;;;;;;14.27;50.87;97964.56;116099;1182;68205;-70
2021/10/14 07:40:50;;;;;;;10.40;9.00;;;;;;;14.56;51.12;97965.73;116055;1184;69290;-68
2021/10/14 07:43:19;;;;;;;9.90;7.80;;;;;;;14.75;51.23;97964.75;116025;1184;60323;-65
2021/10/14 07:45:49;;;;;;;16.40;12.30;;;;;;;15.19;51.02;97964.48;115974;1183;60377;-67
2021/10/14 07:48:18;;;;;;;;;;;;;;;15.74;47.45;97963.84;116039;1184;72234;-70
2021/10/14 07:50:47;;;;;;;9.60;8.20;;;;;;;16.59;46.53;97969.73;115977;1184;67913;-65
2021/10/14 07:53:19;;;;;;;15.80;12.60;;;;;;;17.23;42.63;97976.98;116129;1183;69269;-65
2021/10/14 07:55:49;;;;;;;12.60;10.80;;;;;;;17.07;42.59;97970.15;116009;1184;60324;-66
2021/10/14 07:58:18;;;;;;;13.90;10.40;;;;;;;16.37;42.70;97974.85;116106;1184;60373;-69
2021/10/14 08:00:48;;;;;;;10.80;8.60;;;;;;;15.84;43.75;97977.34;116076;1184;72164;-67
2021/10/14 08:03:17;;;;;;;9.40;7.10;;;;;;;15.78;45.05;97977.61;116025;1183;68557;-68
2021/10/14 08:05:47;;;;;;;10.50;9.10;;;;;;;16.00;45.09;97976.10;116018;1184;69048;-66
2021/10/14 08:08:17;;;;;;;12.80;9.50;;;;;;;16.04;43.27;97978.05;116042;1184;60341;-67
2021/10/14 08:10:47;;;;;;;10.50;7.80;;;;;;;16.04;43.02;97974.00;115963;1184;60389;-69
2021/10/14 08:13:17;;;;;;;11.70;10.10;;;;;;;15.91;43.58;97981.23;116069;1184;72440;-69
2021/10/14 08:15:50;;;;;;;9.80;8.10;;;;;;;15.51;43.52;97986.05;116069;1184;68433;-64
2021/10/14 08:18:21;;;;;;;11.40;8.80;;;;;;;15.36;44.79;97989.88;116018;1183;69286;-69
2021/10/14 08:20:53;;;;;;;12.10;10.30;;;;;;;15.18;45.49;97981.17;116174;1180;60362;-69
2021/10/14 08:23:23;;;;;;;12.60;10.30;;;;;;;14.92;45.39;97980.39;116118;1185;60377;-69
2021/10/14 08:25:53;;;;;;;12.00;9.40;;;;;;;14.61;45.96;97975.55;116226;1182;72883;-66
2021/10/14 08:28:26;;;;;;;13.00;10.80;;;;;;;14.63;46.08;97976.41;116036;1184;68261;-70
2021/10/14 08:30:56;;;;;;;13.10;10.90;;;;;;;14.54;46.31;97980.96;116083;1184;68322;-69
2021/10/14 08:33:25;;;;;;;9.60;8.60;;;;;;;13.97;47.25;97987.34;116172;1182;60314;-68
2021/10/14 08:35:54;;;;;;;12.00;8.20;;;;;;;14.18;47.88;97985.73;116154;1184;60355;-66
2021/10/14 08:38:24;;;;;;;7.90;6.50;;;;;;;14.59;47.67;97985.29;116084;1184;72193;-69
2021/10/14 08:40:53;;;;;;;;;;;;;;;15.08;47.39;97984.17;116177;1184;68562;-64
2021/10/14 08:43:31;;;;;;;7.00;5.30;;;;;;;15.74;46.14;97982.69;116128;1184;68645;-69
2021/10/14 08:46:02;;;;;;;10.90;8.00;;;;;;;16.35;44.61;97981.45;116062;1184;60360;-71
2021/10/14 08:48:31;;;;;;;9.80;8.20;;;;;;;16.64;42.53;97981.81;116067;1182;60336;-68
2021/10/14 08:51:01;;;;;;;;;;;;;;;16.96;41.73;97982.14;116095;1184;72021;-69
2021/10/14 08:53:31;;;;;;;15.70;11.30;;;;;;;17.47;41.32;97980.08;116138;1184;68430;-69
2021/10/14 08:56:00;;;;;;;15.60;11.50;;;;;;;17.44;39.30;97976.36;116223;1174;69294;-67
2021/10/14 08:58:29;;;;;;;11.70;9.30;;;;;;;16.24;41.24;97974.72;116195;1183;60371;-70
2021/10/14 09:01:11;;;;;;;13.60;10.50;;;;;;;16.16;41.89;97972.02;116316;1183;60397;-68
2021/10/14 09:03:49;;;;;;;11.10;8.80;;;;;;;15.41;42.81;97971.02;116152;1183;71713;-69
2021/10/14 09:06:19;;;;;;;12.50;9.10;;;;;;;15.55;42.48;97971.79;116120;1184;68536;-69
2021/10/14 09:08:50;;;;;;;10.50;9.10;;;;;;;15.77;41.97;97976.86;116102;1184;68531;-68
2021/10/14 09:11:28;;;;;;;10.70;9.00;;;;;;;15.87;40.78;97982.36;116230;1182;60422;-65
2021/10/14 09:14:03;;;;;;;9.10;7.30;;;;;;;15.41;41.46;97990.20;116189;1184;60358;-64
2021/10/14 09:16:34;;;;;;;11.00;8.10;;;;;;;15.11;42.08;97992.86;116330;1182;72838;-69
2021/10/14 09:19:22;;;;;;;11.30;8.30;;;;;;;14.71;43.20;97991.70;116178;1183;68542;-69
2021/10/14 09:22:01;;;;;;;11.70;7.90;;;;;;;14.42;44.07;97988.62;115956;1184;68479;-67
2021/10/14 09:24:30;;;;;;;12.50;9.70;;;;;;;14.27;45.07;97984.65;115944;1184;60369;-65
2021/10/14 09:27:03;;;;;;;12.30;9.80;;;;;;;14.15;46.02;97988.55;116127;1184;60351;-67
2021/10/14 09:29:34;;;;;;;11.00;8.30;;;;;;;13.92;46.36;97996.02;116219;1184;72185;-68
2021/10/14 09:32:05;;;;;;;12.30;10.20;;;;;;;13.96;45.97;97999.52;116046;1184;68257;-68
2021/10/14 09:34:46;;;;;;;14.20;10.30;;;;;;;13.26;47.18;98006.89;116144;1185;68513;-70
2021/10/14 09:37:17;;;;;;;9.30;7.90;;;;;;;13.57;47.43;98006.73;116172;1182;60354;-69
2021/10/14 09:40:26;;;;;;;10.60;8.10;;;;;;;13.77;46.22;98007.16;116145;1183;60329;-70
2021/10/14 09:42:57;;;;;;;13.60;10.00;;;;;;;13.77;46.52;98007.84;115858;1186;70601;-70
2021/10/14 09:45:32;;;;;;;12.70;9.80;;;;;;;13.67;46.68;98008.39;115853;1187;68430;-70
2021/10/14 09:48:04;;;;;;;14.90;10.40;;;;;;;13.83;46.94;98003.38;115975;1186;68551;-68
2021/10/14 09:50:56;;;;;;;12.30;9.40;;;;;;;13.36;47.61;97995.36;115859;1186;60322;-72
2021/10/14 09:53:27;;;;;;;11.70;9.50;;;;;;;12.98;48.46;97991.52;115874;1185;60405;-68
2021/10/14 09:55:56;;;;;;;13.40;10.60;;;;;;;12.68;48.57;97991.36;115828;1185;70504;-70
2021/10/14 09:58:26;;;;;;;14.40;10.30;;;;;;;12.22;49.91;97982.97;115804;1187;68192;-66
2021/10/14 10:00:56;;;;;;;15.60;10.50;;;;;;;12.18;51.02;97984.84;115840;1185;68910;-68
2021/10/14 10:03:27;;;;;;;;;;;;;;;12.30;50.75;97983.92;115922;1185;60425;-68
2021/10/14 10:05:56;;;;;;;14.10;11.40;;;;;;;12.64;49.74;97982.77;115888;1185;60371;-68
2021/10/14 10:08:33;;;;;;;13.80;10.70;;;;;;;12.41;50.11;97981.75;116028;1186;71832;-65
2021/10/14 10:11:06;;;;;;;13.20;11.00;;;;;;;12.10;50.51;97982.76;115898;1187;67713;-70
2021/10/14 10:13:38;;;;;;;9.30;7.30;;;;;;;12.65;49.37;97986.38;115849;1186;68499;-66
2021/10/14 10:16:18;;;;;;;13.70;10.20;;;;;;;13.26;48.35;97983.81;115931;1185;60337;-65
2021/10/14 10:18:50;;;;;;;12.80;9.70;;;;;;;13.73;45.84;97981.86;115865;1184;60471;-65
2021/10/14 10:21:28;;;;;;;15.10;10.90;;;;;;;13.94;45.98;97976.77;116130;1183;72224;-69
2021/10/14 10:24:03;;;;;;;14.20;10.50;;;;;;;14.14;45.87;97973.42;116291;1182;68372;-66
2021/10/14 10:26:35;;;;;;;11.30;7.90;;;;;;;14.06;45.51;97976.87;116100;1184;69939;-68
2021/10/14 10:29:07;;;;;;;10.70;7.50;;;;;;;14.27;45.99;97974.71;116172;1183;60339;-65
2021/10/14 10:32:12;;;;;;;12.40;10.10;;;;;;;14.35;44.76;97977.38;116179;1183;60787;-68
2021/10/14 10:34:44;;;;;;;12.10;9.30;;;;;;;14.05;45.05;97980.28;116153;1184;72163;-66
2021/10/14 10:37:25;;;;;;;12.70;9.60;;;;;;;13.29;46.67;97986.17;116012;1184;68451;-66
2021/10/14 10:40:03;;;;;;;11.90;8.50;;;;;;;13.08;47.47;97979.34;116159;1182;69392;-69
2021/10/14 10:42:38;;;;;;;13.80;9.80;;;;;;;12.90;47.95;97977.02;115993;1184;60396;-67
2021/10/14 10:45:16;;;;;;;13.90;10.80;;;;;;;12.56;48.33;97977.23;116097;1184;60354;-66
2021/10/14 10:47:48;;;;;;;10.70;7.60;;;;;;;12.55;48.50;97973.61;116314;1185;72199;-66
2021/10/14 10:50:27;;;;;;;13.20;10.10;;;;;;;12.81;46.98;97974.73;116268;1184;67864;-68
2021/10/14 10:53:03;;;;;;;10.00;7.30;;;;;;;12.83;47.40;97972.69;116276;1183;68517;-68
2021/10/14 10:55:36;;;;;;;10.40;8.00;;;;;;;12.98;47.57;97968.76;116078;1184;60320;-69
2021/10/14 10:58:09;;;;;;;10.10;7.10;;;;;;;13.08;47.26;97961.87;116323;1183;60315;-66
2021/10/14 11:00:41;;;;;;;12.50;9.60;;;;;;;13.19;46.87;97959.14;116335;1182;72059;-71
2021/10/14 11:03:14;;;;;;;10.80;7.10;;;;;;;13.27;47.14;97956.99;116248;1183;67641;-67
2021/10/14 11:05:50;;;;;;;14.50;10.90;;;;;;;13.32;46.93;97955.21;116184;1184;68494;-68
2021/10/14 11:08:23;;;;;;;13.90;10.30;;;;;;;12.86;47.84;97952.50;116270;1183;60363;-70
2021/10/14 11:10:59;;;;;;;13.30;10.50;;;;;;;12.44;48.89;97948.02;116299;1184;60363;-68
2021/10/14 11:13:32;;;;;;;10.40;8.10;;;;;;;12.46;49.45;97952.20;116209;1183;72262;-65
2021/10/14 11:16:07;;;;;;;12.90;8.70;;;;;;;12.70;48.80;97953.98;116236;1184;67677;-65
2021/10/14 11:18:39;;;;;;;11.30;9.00;;;;;;;12.89;49.19;97953.87;116199;1184;69354;-67
2021/10/14 11:21:30;;;;;;;14.60;10.50;;;;;;;13.29;48.57;97955.77;116130;1183;60364;-69
2021/10/14 11:24:00;;;;;;;13.30;11.10;;;;;;;13.56;47.98;97952.88;116234;1182;60364;-70
2021/10/14 11:26:34;;;;;;;11.60;8.50;;;;;;;13.53;46.72;97948.72;116284;1183;72768;-66
2021/10/14 11:29:07;;;;;;;10.20;7.60;;;;;;;14.02;46.47;97947.39;116243;1183;68401;-68
2021/10/14 11:31:42;;;;;;;8.20;7.20;;;;;;;14.47;46.43;97945.23;115902;1184;69246;-68
2021/10/14 11:34:15;;;;;;;8.40;6.30;;;;;;;14.80;45.68;97951.14;116317;1183;60380;-65
2021/10/14 11:36:56;;;;;;;11.30;8.60;;;;;;;15.02;44.17;97948.16;116151;1183;60306;-68